createdAt,value
2023-02-05T00:01:49.822Z,37.75
2023-02-05T00:06:53.737Z,39.80
2023-02-05T00:11:59.462Z,38.33
2023-02-05T00:17:03.228Z,38.90
2023-02-05T00:22:07.044Z,37.55
2023-02-05T00:27:12.162Z,38.50
2023-02-05T00:32:15.953Z,39.88
2023-02-05T00:37:19.806Z,38.78
2023-02-05T00:42:25.001Z,40.35
2023-02-05T00:47:28.723Z,40.30
2023-02-05T00:52:32.544Z,40.30
2023-02-05T00:57:37.953Z,39.00
2023-02-05T01:02:44.310Z,40.67
2023-02-05T01:07:48.180Z,38.47
2023-02-05T01:12:53.604Z,42.42
2023-02-05T01:17:58.591Z,39.85
2023-02-05T01:23:02.296Z,39.28
2023-02-05T01:28:07.772Z,40.50
2023-02-05T01:33:11.521Z,41.05
2023-02-05T01:38:15.901Z,39.83
2023-02-05T01:43:21.199Z,36.88
2023-02-05T01:48:28.884Z,37.55
2023-02-05T01:53:35.982Z,37.97
2023-02-05T01:58:44.749Z,36.45
2023-02-05T02:03:50.649Z,35.65
2023-02-05T02:08:54.566Z,37.20
2023-02-05T02:14:02.385Z,36.78
2023-02-05T02:19:11.506Z,35.73
2023-02-05T02:24:44.038Z,33.05
2023-02-05T02:29:55.159Z,33.25
2023-02-05T02:35:07.184Z,31.62
2023-02-05T02:40:16.971Z,26.92
2023-02-05T02:45:25.557Z,24.45
2023-02-05T02:50:34.820Z,24.17
2023-02-05T02:55:43.843Z,21.75
2023-02-05T03:00:50.315Z,21.45
2023-02-05T03:05:57.344Z,19.90
2023-02-05T03:11:05.363Z,19.80
2023-02-05T03:16:11.856Z,17.52
2023-02-05T03:21:18.722Z,17.12
2023-02-05T03:26:27.758Z,17.80
2023-02-05T03:31:46.009Z,17.08
2023-02-05T03:36:59.532Z,15.52
2023-02-05T03:42:14.258Z,12.77
2023-02-05T03:47:31.253Z,12.45
2023-02-05T03:52:42.643Z,12.37
2023-02-05T03:57:53.677Z,11.85
2023-02-05T04:02:59.673Z,11.15
2023-02-05T04:08:05.147Z,10.38
2023-02-05T04:13:09.850Z,11.60
2023-02-05T04:18:15.230Z,11.25
2023-02-05T04:23:19.366Z,11.45
2023-02-05T04:28:23.349Z,11.07
2023-02-05T04:33:29.058Z,11.25
2023-02-05T04:38:33.030Z,13.07
2023-02-05T04:43:36.867Z,12.25
2023-02-05T04:48:42.268Z,12.30
2023-02-05T04:53:46.102Z,13.13
2023-02-05T04:58:49.896Z,11.60
2023-02-05T05:03:55.038Z,12.75
2023-02-05T05:08:58.753Z,12.35
2023-02-05T05:14:02.521Z,11.90
2023-02-05T05:19:07.636Z,13.10
2023-02-05T05:24:11.374Z,14.00
2023-02-05T05:29:15.817Z,14.75
2023-02-05T05:34:21.448Z,15.52
2023-02-05T05:39:44.865Z,13.57
2023-02-05T05:44:51.965Z,13.30
2023-02-05T05:49:57.241Z,8.35
2023-02-05T05:55:01.332Z,6.87
2023-02-05T06:00:05.991Z,4.40
2023-02-05T06:05:17.085Z,2.90
2023-02-05T06:10:21.107Z,2.40
2023-02-05T06:15:28.237Z,2.03
2023-02-05T06:20:33.321Z,1.52
2023-02-05T06:25:39.244Z,2.62
2023-02-05T06:30:43.076Z,2.10
2023-02-05T06:35:48.305Z,2.35
2023-02-05T06:40:52.011Z,2.65
2023-02-05T06:45:56.663Z,1.67
2023-02-05T06:51:01.735Z,1.95
2023-02-05T06:56:06.340Z,1.30
2023-02-05T07:01:10.047Z,2.72
2023-02-05T07:06:15.281Z,2.17
2023-02-05T07:11:19.120Z,1.33
2023-02-05T07:16:23.068Z,1.67
2023-02-05T07:21:28.302Z,1.80
2023-02-05T07:26:32.070Z,1.33
2023-02-05T07:31:36.454Z,2.22
2023-02-05T07:36:41.626Z,2.37
2023-02-05T07:41:45.410Z,2.22
2023-02-05T07:46:51.813Z,2.08
2023-02-05T07:51:57.042Z,1.75
2023-02-05T07:57:01.121Z,2.60
2023-02-05T08:02:05.292Z,1.75
2023-02-05T08:07:12.334Z,1.95
2023-02-05T08:12:16.172Z,2.67
2023-02-05T08:17:19.985Z,2.35
2023-02-05T08:22:25.095Z,3.20
2023-02-05T08:27:30.090Z,3.35
2023-02-05T08:32:34.564Z,2.65
2023-02-05T08:37:39.660Z,3.05
2023-02-05T08:42:43.420Z,2.85
2023-02-05T08:47:47.394Z,3.87
2023-02-05T08:52:52.706Z,4.18
2023-02-05T08:57:56.543Z,3.95
2023-02-05T09:03:00.332Z,4.00
2023-02-05T09:08:05.540Z,4.20
2023-02-05T09:13:09.498Z,4.45
2023-02-05T09:18:13.447Z,4.50
2023-02-05T09:23:21.321Z,4.35
2023-02-05T09:28:25.104Z,4.87
2023-02-05T09:33:28.863Z,5.20
2023-02-05T09:38:34.088Z,5.82
2023-02-05T09:43:49.530Z,6.28
2023-02-05T09:49:00.887Z,5.05
2023-02-05T09:54:19.610Z,5.28
2023-02-05T09:59:26.444Z,5.45
2023-02-05T10:04:30.826Z,5.05
2023-02-05T10:09:57.697Z,5.32
2023-02-05T10:15:14.908Z,4.57
2023-02-05T10:20:35.843Z,3.97
2023-02-05T10:26:02.104Z,5.82
2023-02-05T10:31:14.054Z,5.05
2023-02-05T10:36:22.520Z,4.32
2023-02-05T10:46:36.581Z,4.72
2023-02-05T10:51:42.813Z,4.45
2023-02-05T10:56:49.133Z,5.40
2023-02-05T11:01:53.384Z,4.53
2023-02-05T11:06:57.577Z,4.12
2023-02-05T11:12:05.140Z,4.90
2023-02-05T11:17:19.054Z,4.53
2023-02-05T11:22:28.337Z,4.00
2023-02-05T11:27:34.769Z,4.45
2023-02-05T11:32:39.584Z,4.75
2023-02-05T11:37:43.673Z,5.47
2023-02-05T11:42:59.923Z,5.05
2023-02-05T11:48:07.445Z,5.05
2023-02-05T11:53:17.334Z,5.83
2023-02-05T11:58:36.122Z,5.25
2023-02-05T12:03:40.185Z,4.65
2023-02-05T12:08:48.457Z,4.60
2023-02-05T12:19:13.501Z,4.82
2023-02-05T12:24:48.529Z,4.15
2023-02-05T12:30:04.938Z,4.72
2023-02-05T12:35:34.613Z,4.35
2023-02-05T12:40:52.646Z,4.95
2023-02-05T12:46:06.796Z,4.50
2023-02-05T12:51:26.405Z,3.87
2023-02-05T12:56:50.567Z,4.10
2023-02-05T13:02:00.314Z,3.90
2023-02-05T13:07:12.730Z,4.65
2023-02-05T13:12:19.515Z,4.07
2023-02-05T13:17:27.931Z,3.97
2023-02-05T13:22:52.856Z,3.55
2023-02-05T13:28:19.463Z,3.65
2023-02-05T13:33:24.581Z,3.40
2023-02-05T13:38:48.275Z,3.87
2023-02-05T13:44:23.249Z,3.37
2023-02-05T13:49:49.561Z,3.35
2023-02-05T13:55:16.673Z,3.65
2023-02-05T14:00:21.118Z,3.80
2023-02-05T14:05:35.541Z,4.22
2023-02-05T14:10:44.873Z,3.50
2023-02-05T14:15:49.435Z,3.53
2023-02-05T14:20:54.604Z,4.22
2023-02-05T14:26:13.614Z,4.80
2023-02-05T14:31:57.371Z,3.42
2023-02-05T14:37:02.515Z,4.45
2023-02-05T14:42:09.007Z,4.12
2023-02-05T14:47:22.317Z,4.82
2023-02-05T14:52:34.240Z,4.53
2023-02-05T14:57:43.428Z,4.18
2023-02-05T15:03:00.813Z,4.53
2023-02-05T15:08:16.397Z,4.90
2023-02-05T15:13:21.104Z,4.05
2023-02-05T15:18:27.978Z,4.50
2023-02-05T15:23:39.205Z,4.50
2023-02-05T15:28:50.769Z,5.47
2023-02-05T15:34:01.016Z,4.70
2023-02-05T15:39:19.782Z,4.12
2023-02-05T15:44:28.095Z,4.72
2023-02-05T15:54:39.226Z,5.65
2023-02-05T15:59:43.043Z,4.53
2023-02-05T16:04:53.717Z,4.22
2023-02-05T16:10:00.664Z,4.43
2023-02-05T16:15:07.069Z,5.65
2023-02-05T16:20:23.583Z,7.10
2023-02-05T16:25:41.342Z,6.12
2023-02-05T16:30:47.622Z,5.62
2023-02-05T16:35:52.242Z,6.22
2023-02-05T16:41:00.186Z,5.40
2023-02-05T16:46:26.504Z,4.75
2023-02-05T16:51:39.511Z,6.93
2023-02-05T16:56:51.731Z,6.00
2023-02-05T17:01:56.200Z,5.85
2023-02-05T17:07:02.300Z,8.25
2023-02-05T17:12:38.519Z,5.62
2023-02-05T17:17:49.498Z,5.78
2023-02-05T17:23:10.694Z,7.95
2023-02-05T17:28:19.642Z,6.25
2023-02-05T17:33:25.344Z,7.43
2023-02-05T17:38:29.188Z,6.90
2023-02-05T17:43:34.422Z,8.30
2023-02-05T17:48:40.033Z,7.03
2023-02-05T17:53:43.968Z,7.78
2023-02-05T17:58:50.653Z,7.50
2023-02-05T18:03:54.534Z,5.95
2023-02-05T18:08:58.473Z,6.70
2023-02-05T18:14:03.715Z,6.40
2023-02-05T18:19:07.545Z,7.85
2023-02-05T18:24:11.457Z,5.82
2023-02-05T18:29:16.652Z,8.60
2023-02-05T18:34:20.508Z,6.82
2023-02-05T18:39:28.426Z,5.68
2023-02-05T18:44:33.753Z,6.70
2023-02-05T18:49:38.014Z,6.85
2023-02-05T18:54:44.044Z,5.95
2023-02-05T18:59:49.907Z,8.38
2023-02-05T19:04:56.484Z,6.35
2023-02-05T19:10:01.636Z,6.53
2023-02-05T19:15:07.666Z,7.15
2023-02-05T19:20:12.479Z,6.85
2023-02-05T19:25:20.254Z,6.72
2023-02-05T19:30:25.896Z,7.68
2023-02-05T19:35:30.024Z,7.15
2023-02-05T19:40:36.180Z,6.22
2023-02-05T19:45:42.372Z,8.90
2023-02-05T19:50:46.182Z,6.03
2023-02-05T19:55:50.446Z,6.62
2023-02-05T20:00:55.667Z,6.78
2023-02-05T20:06:04.725Z,8.32
2023-02-05T20:11:09.028Z,7.45
2023-02-05T20:16:16.513Z,6.40
2023-02-05T20:21:20.514Z,5.65
2023-02-05T20:26:25.666Z,5.80
2023-02-05T20:31:41.660Z,6.97
2023-02-05T20:36:47.300Z,7.05
2023-02-05T20:41:52.931Z,6.43
2023-02-05T20:46:58.277Z,6.50
2023-02-05T20:52:02.184Z,6.55
2023-02-05T20:57:06.333Z,6.60
2023-02-05T21:02:13.687Z,6.87
2023-02-05T21:07:17.506Z,7.93
2023-02-05T21:12:21.317Z,7.97
2023-02-05T21:17:26.517Z,6.68
2023-02-05T21:22:30.300Z,6.85
2023-02-05T21:27:34.108Z,9.60
2023-02-05T21:32:39.393Z,8.05
2023-02-05T21:37:45.533Z,6.00
2023-02-05T21:42:49.509Z,7.00
2023-02-05T21:47:54.746Z,6.35
2023-02-05T21:52:58.597Z,6.72
2023-02-05T21:58:02.488Z,8.48
2023-02-05T22:03:07.628Z,7.28
2023-02-05T22:08:12.018Z,6.78
2023-02-05T22:13:15.910Z,6.93
2023-02-05T22:18:21.018Z,6.28
2023-02-05T22:23:24.766Z,7.32
2023-02-05T22:28:28.918Z,6.70
2023-02-05T22:33:35.766Z,7.22
2023-02-05T22:38:40.949Z,8.45
2023-02-05T22:43:44.826Z,8.10
2023-02-05T22:48:51.563Z,5.95
2023-02-05T22:53:56.212Z,7.10
2023-02-05T22:59:02.785Z,6.90
2023-02-05T23:04:10.380Z,4.30
2023-02-05T23:09:16.483Z,5.90
2023-02-05T23:14:20.324Z,6.80
2023-02-05T23:19:25.422Z,6.85
2023-02-05T23:24:29.288Z,7.70
2023-02-05T23:29:33.136Z,7.82
2023-02-05T23:34:38.251Z,6.75
2023-02-05T23:39:42.067Z,9.30
2023-02-05T23:44:45.844Z,7.22
2023-02-05T23:49:50.943Z,6.15
2023-02-05T23:54:56.879Z,6.47
